Time;durP1;ratioP1;P1;durP2;ratioP2;P2;SDS_P1;SDS_P2;PMS_P1;PMS_P2;Temp;Humidity;BMP_temperature;BMP_pressure;BME280_temperature;BME280_humidity;BME280_pressure;Samples;Min_cycle;Max_cycle;Signal;HPM_P1;HPM_P2
2024/04/17 00:01:21;;;;;;;3.53;1.90;;;6.60;93.80;;;;;;5456167;26;20010;-71
2024/04/17 00:04:08;;;;;;;3.80;1.70;;;6.60;93.90;;;;;;5480845;26;20002;-71
2024/04/17 00:06:54;;;;;;;3.20;1.60;;;6.60;93.80;;;;;;5471939;26;20021;-71
2024/04/17 00:09:40;;;;;;;3.58;2.13;;;6.60;93.80;;;;;;5446135;26;20007;-72
2024/04/17 00:12:25;;;;;;;2.25;1.85;;;6.60;93.90;;;;;;5477311;26;20009;-72
2024/04/17 00:15:12;;;;;;;3.00;1.92;;;6.60;94.00;;;;;;5459787;26;19998;-71
2024/04/17 00:17:58;;;;;;;4.20;2.30;;;6.60;94.20;;;;;;5480369;26;20002;-71
2024/04/17 00:20:44;;;;;;;3.63;1.90;;;6.50;94.20;;;;;;5483252;26;20325;-71
2024/04/17 00:23:30;;;;;;;3.05;1.70;;;6.50;94.20;;;;;;5485464;26;20438;-71
2024/04/17 00:26:16;;;;;;;4.13;1.80;;;6.60;94.20;;;;;;5472241;26;19998;-71
2024/04/17 00:29:01;;;;;;;3.33;1.58;;;6.50;94.20;;;;;;5479535;26;20009;-73
2024/04/17 00:31:47;;;;;;;2.50;1.77;;;6.50;94.30;;;;;;5480803;26;20048;-72
2024/04/17 00:34:33;;;;;;;5.05;1.73;;;6.50;94.20;;;;;;5484054;26;19998;-72
2024/04/17 00:37:19;;;;;;;3.17;1.95;;;6.50;94.20;;;;;;5466188;26;20023;-73
2024/04/17 00:40:06;;;;;;;2.70;1.60;;;6.50;94.20;;;;;;5481057;26;20002;-72
2024/04/17 00:42:52;;;;;;;2.78;1.50;;;6.50;94.20;;;;;;5475961;26;19997;-72
2024/04/17 00:45:47;;;;;;;2.08;1.52;;;6.50;94.20;;;;;;5472922;26;19998;-71
2024/04/17 00:48:33;;;;;;;3.53;1.88;;;6.50;94.20;;;;;;5449835;26;20565;-71
2024/04/17 00:51:19;;;;;;;3.63;2.10;;;6.50;94.30;;;;;;5447928;26;20035;-71
2024/04/17 00:54:05;;;;;;;3.22;1.83;;;6.50;94.20;;;;;;5447735;26;20010;-71
2024/04/17 00:56:52;;;;;;;1.92;1.30;;;6.50;94.20;;;;;;5475288;26;20051;-72
2024/04/17 00:59:39;;;;;;;3.42;1.52;;;6.50;94.20;;;;;;5482382;26;19994;-70
2024/04/17 01:02:25;;;;;;;2.83;1.60;;;6.40;94.30;;;;;;5483080;26;20612;-71
2024/04/17 01:05:11;;;;;;;4.18;1.70;;;6.40;94.30;;;;;;5481587;26;20006;-71
2024/04/17 01:07:57;;;;;;;2.88;1.63;;;6.50;94.30;;;;;;5480973;26;20013;-71
2024/04/17 01:10:43;;;;;;;3.50;1.63;;;6.50;94.30;;;;;;5469572;26;20161;-71
2024/04/17 01:13:30;;;;;;;3.67;1.95;;;6.40;94.20;;;;;;5483472;26;20411;-71
2024/04/17 01:16:16;;;;;;;2.50;1.55;;;6.40;94.20;;;;;;5482508;26;19998;-71
2024/04/17 01:19:04;;;;;;;3.63;2.38;;;6.40;94.20;;;;;;5476702;26;20112;-71
2024/04/17 01:21:53;;;;;;;3.92;2.17;;;6.40;94.30;;;;;;5467972;26;20010;-71
2024/04/17 01:24:39;;;;;;;2.72;1.58;;;6.50;94.40;;;;;;5470798;26;20392;-72
2024/04/17 01:27:25;;;;;;;4.05;1.90;;;6.50;94.60;;;;;;5485044;26;20376;-72
2024/04/17 01:30:11;;;;;;;5.07;2.15;;;6.50;94.30;;;;;;5468958;26;20450;-72
2024/04/17 01:32:57;;;;;;;3.97;1.90;;;6.50;94.40;;;;;;5484877;26;19994;-72
2024/04/17 01:35:43;;;;;;;4.28;2.25;;;6.50;94.40;;;;;;5475968;26;19999;-72
2024/04/17 01:38:29;;;;;;;6.47;2.15;;;6.40;94.30;;;;;;5480392;26;19995;-72
2024/04/17 01:41:15;;;;;;;4.22;2.80;;;6.50;94.30;;;;;;5470509;26;19995;-72
2024/04/17 01:44:01;;;;;;;3.10;1.90;;;6.40;94.30;;;;;;5481124;26;20064;-71
2024/04/17 01:46:47;;;;;;;4.45;1.88;;;6.40;94.30;;;;;;5484235;26;20030;-71
2024/04/17 01:49:33;;;;;;;4.25;2.60;;;6.40;94.40;;;;;;5481698;26;19990;-72
2024/04/17 01:52:19;;;;;;;3.53;2.08;;;6.40;94.40;;;;;;5477706;26;20075;-71
2024/04/17 01:55:06;;;;;;;5.05;2.33;;;6.40;94.30;;;;;;5482590;26;20009;-72
2024/04/17 01:57:51;;;;;;;4.15;1.75;;;6.40;94.30;;;;;;5471034;26;19999;-72
2024/04/17 02:00:38;;;;;;;3.75;1.92;;;6.40;94.20;;;;;;5468393;26;20010;-71
2024/04/17 02:03:23;;;;;;;4.65;1.90;;;6.40;94.20;;;;;;5479852;26;20453;-72
2024/04/17 02:06:09;;;;;;;3.63;2.38;;;6.40;94.20;;;;;;5484046;26;20017;-71
2024/04/17 02:08:55;;;;;;;2.45;1.40;;;6.40;94.20;;;;;;5483094;26;20437;-71
2024/04/17 02:11:41;;;;;;;2.35;1.50;;;6.40;94.20;;;;;;5482705;26;20002;-71
2024/04/17 02:14:27;;;;;;;3.38;1.50;;;6.30;94.20;;;;;;5465725;26;19998;-71
2024/04/17 02:17:13;;;;;;;3.47;1.67;;;6.30;94.10;;;;;;5464017;25;20400;-71
2024/04/17 02:19:59;;;;;;;4.78;1.75;;;6.30;94.10;;;;;;5478090;26;20445;-71
2024/04/17 02:22:45;;;;;;;2.63;1.60;;;6.30;94.20;;;;;;5481454;26;19990;-71
2024/04/17 02:25:31;;;;;;;3.30;1.20;;;6.30;94.20;;;;;;5482805;26;20395;-71
2024/04/17 02:28:17;;;;;;;2.28;1.10;;;6.30;94.20;;;;;;5444804;26;19995;-71
2024/04/17 02:31:03;;;;;;;3.72;1.42;;;6.30;94.20;;;;;;5474589;26;20013;-71
2024/04/17 02:33:48;;;;;;;4.82;1.58;;;6.30;94.20;;;;;;5479682;26;20474;-71
2024/04/17 02:36:34;;;;;;;2.70;1.30;;;6.20;94.20;;;;;;5482562;26;20046;-67
2024/04/17 02:39:20;;;;;;;2.90;1.42;;;6.20;94.20;;;;;;5485193;26;20430;-72
2024/04/17 02:42:06;;;;;;;2.05;1.40;;;6.20;94.30;;;;;;5482253;26;19994;-72
2024/04/17 02:44:52;;;;;;;3.33;1.45;;;6.30;94.40;;;;;;5469048;26;19994;-72
2024/04/17 02:47:38;;;;;;;3.25;1.48;;;6.30;94.40;;;;;;5450230;26;20009;-72
2024/04/17 02:50:24;;;;;;;1.98;1.38;;;6.30;94.40;;;;;;5482624;26;20035;-72
2024/04/17 02:53:10;;;;;;;2.08;1.00;;;6.30;94.40;;;;;;5482399;26;20080;-72
2024/04/17 02:55:56;;;;;;;3.00;1.77;;;6.30;94.40;;;;;;5486048;26;20051;-73
2024/04/17 02:58:42;;;;;;;2.20;1.30;;;6.30;94.30;;;;;;5482323;26;20025;-72
2024/04/17 03:01:28;;;;;;;2.13;1.45;;;6.40;94.30;;;;;;5471686;26;19998;-71
2024/04/17 03:04:14;;;;;;;2.17;1.35;;;6.40;94.30;;;;;;5454469;26;20002;-71
2024/04/17 03:07:00;;;;;;;2.85;1.75;;;6.40;94.40;;;;;;5455070;26;20335;-72
2024/04/17 03:09:47;;;;;;;3.75;1.40;;;6.40;94.40;;;;;;5477035;26;20022;-70
2024/04/17 03:12:33;;;;;;;2.30;1.40;;;6.40;94.40;;;;;;5460527;26;20332;-71
2024/04/17 03:15:19;;;;;;;2.05;1.13;;;6.40;94.40;;;;;;5477621;26;20450;-71
2024/04/17 03:18:05;;;;;;;3.10;1.50;;;6.40;94.30;;;;;;5481259;26;20354;-71
2024/04/17 03:20:51;;;;;;;3.33;1.20;;;6.40;94.30;;;;;;5470788;26;20002;-72
2024/04/17 03:23:37;;;;;;;1.70;1.35;;;6.40;94.30;;;;;;5450935;26;19999;-72
2024/04/17 03:26:22;;;;;;;4.88;1.20;;;6.50;94.30;;;;;;5478396;26;20070;-72
2024/04/17 03:29:08;;;;;;;3.90;1.58;;;6.50;94.40;;;;;;5453987;26;20331;-72
2024/04/17 03:31:54;;;;;;;1.42;1.02;;;6.50;94.40;;;;;;5462022;26;20331;-72
2024/04/17 03:34:40;;;;;;;2.30;1.38;;;6.60;94.50;;;;;;5450392;26;20006;-72
2024/04/17 03:37:26;;;;;;;3.40;1.38;;;6.60;94.50;;;;;;5454057;26;20040;-71
2024/04/17 03:40:12;;;;;;;3.53;1.63;;;6.70;94.50;;;;;;5484327;26;19991;-71
2024/04/17 03:42:58;;;;;;;3.13;1.13;;;6.70;94.80;;;;;;5483684;26;20006;-71
2024/04/17 03:45:44;;;;;;;1.73;1.20;;;6.80;94.50;;;;;;5454163;26;20013;-71
2024/04/17 03:48:31;;;;;;;3.60;1.65;;;6.80;94.50;;;;;;5465168;26;20009;-71
2024/04/17 03:51:17;;;;;;;1.25;1.13;;;6.80;94.40;;;;;;5486195;26;20322;-71
2024/04/17 03:54:03;;;;;;;4.15;1.65;;;6.90;94.40;;;;;;5484745;26;20458;-70
2024/04/17 03:56:49;;;;;;;2.47;1.33;;;6.90;94.40;;;;;;5483399;26;20003;-71
2024/04/17 03:59:35;;;;;;;2.97;1.35;;;6.90;94.40;;;;;;5485357;26;20008;-70
2024/04/17 04:02:21;;;;;;;2.85;1.35;;;6.90;94.70;;;;;;5475097;26;20002;-71
2024/04/17 04:05:07;;;;;;;3.20;1.48;;;7.00;94.50;;;;;;5476408;26;19994;-71
2024/04/17 04:07:53;;;;;;;2.50;1.40;;;7.00;94.50;;;;;;5486492;26;20030;-71
2024/04/17 04:10:39;;;;;;;2.67;1.75;;;7.00;94.40;;;;;;5484224;26;20002;-71
2024/04/17 04:13:25;;;;;;;4.10;1.95;;;7.00;94.30;;;;;;5451633;26;20003;-70
2024/04/17 04:16:11;;;;;;;1.70;1.27;;;7.00;94.30;;;;;;5450151;26;19995;-71
2024/04/17 04:18:57;;;;;;;2.28;1.75;;;7.10;94.40;;;;;;5462382;26;20002;-71
2024/04/17 04:21:43;;;;;;;5.53;1.90;;;7.10;94.30;;;;;;5454787;26;19999;-71
2024/04/17 04:24:28;;;;;;;3.03;1.85;;;7.10;94.30;;;;;;5476548;26;20033;-71
2024/04/17 04:27:15;;;;;;;2.75;1.35;;;7.10;94.20;;;;;;5482658;26;19990;-72
2024/04/17 04:30:01;;;;;;;2.35;1.58;;;7.10;94.10;;;;;;5474283;26;20010;-71
2024/04/17 04:32:46;;;;;;;2.80;1.63;;;7.10;94.10;;;;;;5481516;26;20002;-71
2024/04/17 04:35:32;;;;;;;3.90;1.60;;;7.10;94.00;;;;;;5473883;26;20007;-71
2024/04/17 04:38:18;;;;;;;2.45;1.50;;;7.10;94.10;;;;;;5462745;26;20036;-71
2024/04/17 04:41:04;;;;;;;4.22;1.70;;;7.10;94.10;;;;;;5477069;26;19998;-71
2024/04/17 04:43:50;;;;;;;3.10;1.75;;;7.10;94.10;;;;;;5484945;26;20009;-70
2024/04/17 04:46:36;;;;;;;2.97;1.60;;;7.10;94.20;;;;;;5468528;26;20006;-71
2024/04/17 04:49:23;;;;;;;2.22;1.60;;;7.10;94.20;;;;;;5477642;26;19999;-71
2024/04/17 04:52:09;;;;;;;3.10;1.52;;;7.10;94.10;;;;;;5477199;26;20458;-71
2024/04/17 04:54:54;;;;;;;3.03;1.77;;;7.10;94.10;;;;;;5486889;26;20006;-71
2024/04/17 04:57:40;;;;;;;3.38;1.80;;;7.20;94.20;;;;;;5462586;26;20622;-71
2024/04/17 05:00:26;;;;;;;5.13;2.15;;;7.20;94.20;;;;;;5471984;26;20384;-71
2024/04/17 05:03:12;;;;;;;2.25;1.50;;;7.20;94.20;;;;;;5470021;26;20007;-72
2024/04/17 05:05:58;;;;;;;3.45;1.90;;;7.30;94.20;;;;;;5449033;26;20011;-72
2024/04/17 05:08:44;;;;;;;3.78;1.80;;;7.20;94.00;;;;;;5476148;26;20330;-69
2024/04/17 05:11:30;;;;;;;4.72;2.03;;;7.20;94.10;;;;;;5480915;26;19998;-76
2024/04/17 05:14:16;;;;;;;3.55;2.25;;;7.30;94.10;;;;;;5478767;26;19998;-77
2024/04/17 05:17:02;;;;;;;3.05;1.50;;;7.30;94.00;;;;;;5471199;25;20328;-71
2024/04/17 05:19:48;;;;;;;2.80;1.52;;;7.30;94.00;;;;;;5476498;26;19991;-71
2024/04/17 05:22:34;;;;;;;4.90;2.58;;;7.40;94.10;;;;;;5478490;26;20314;-72
2024/04/17 05:25:20;;;;;;;5.88;2.75;;;7.40;94.00;;;;;;5474616;26;20331;-72
2024/04/17 05:28:06;;;;;;;5.03;2.10;;;7.50;94.00;;;;;;5485971;26;20070;-69
2024/04/17 05:30:57;;;;;;;3.55;2.53;;;7.50;94.00;;;;;;5481385;26;19998;-66
2024/04/17 05:33:43;;;;;;;2.45;1.65;;;7.60;94.10;;;;;;5457730;26;19999;-71
2024/04/17 05:36:29;;;;;;;4.75;2.25;;;7.70;94.20;;;;;;5471046;26;20010;-70
2024/04/17 05:39:14;;;;;;;4.22;1.85;;;7.90;94.20;;;;;;5485443;26;20005;-70
2024/04/17 05:42:02;;;;;;;4.43;2.00;;;8.00;94.10;;;;;;5460523;26;20009;-70
2024/04/17 05:44:48;;;;;;;5.45;2.30;;;8.00;94.10;;;;;;5479563;26;20006;-71
2024/04/17 05:47:34;;;;;;;3.60;1.60;;;8.10;94.10;;;;;;5480321;26;20007;-72
2024/04/17 05:50:20;;;;;;;6.57;1.80;;;8.20;94.10;;;;;;5470658;26;19998;-73
2024/04/17 05:53:06;;;;;;;10.30;2.00;;;8.30;94.00;;;;;;5484602;26;19998;-74
2024/04/17 05:55:52;;;;;;;4.72;2.40;;;8.30;93.80;;;;;;5460938;26;20005;-72
2024/04/17 05:58:38;;;;;;;3.97;2.00;;;8.50;93.70;;;;;;5484737;25;19998;-73
2024/04/17 06:01:26;;;;;;;3.83;1.92;;;8.50;93.80;;;;;;5470151;26;20005;-73
2024/04/17 06:04:12;;;;;;;3.38;1.85;;;8.60;93.60;;;;;;5452989;26;20083;-72
2024/04/17 06:06:58;;;;;;;4.80;2.20;;;8.70;93.50;;;;;;5484205;26;20002;-71
2024/04/17 06:09:44;;;;;;;4.53;2.92;;;8.70;93.40;;;;;;5476137;26;20012;-72
2024/04/17 06:12:29;;;;;;;6.40;1.80;;;8.80;93.30;;;;;;5454122;26;20006;-72
2024/04/17 06:15:16;;;;;;;4.82;1.80;;;9.00;93.30;;;;;;5465184;26;20006;-72
2024/04/17 06:18:03;;;;;;;4.47;2.55;;;9.10;93.20;;;;;;5484959;26;20001;-72
2024/04/17 06:20:49;;;;;;;2.58;1.80;;;9.10;93.00;;;;;;5467488;26;20002;-72
2024/04/17 06:23:34;;;;;;;2.55;1.67;;;9.10;92.80;;;;;;5476386;26;19994;-71
2024/04/17 06:26:21;;;;;;;4.70;1.88;;;9.20;92.90;;;;;;5459830;26;20009;-65
2024/04/17 06:29:07;;;;;;;3.55;1.98;;;9.20;92.80;;;;;;5444107;26;20013;-69
2024/04/17 06:31:52;;;;;;;3.42;2.10;;;9.30;92.80;;;;;;5470231;26;20325;-72
2024/04/17 06:34:38;;;;;;;4.35;2.42;;;9.30;92.70;;;;;;5472784;26;20350;-72
2024/04/17 06:37:24;;;;;;;4.70;2.10;;;9.40;92.80;;;;;;5477342;26;19994;-72
2024/04/17 06:40:10;;;;;;;4.20;2.25;;;9.40;92.70;;;;;;5481463;26;19994;-71
2024/04/17 06:42:56;;;;;;;3.15;1.83;;;9.50;92.70;;;;;;5484202;26;20009;-71
2024/04/17 06:45:45;;;;;;;5.03;2.00;;;9.60;92.60;;;;;;5480662;26;20079;-72
2024/04/17 06:48:31;;;;;;;4.38;2.50;;;9.70;92.30;;;;;;5479079;26;20338;-71
2024/04/17 06:51:17;;;;;;;5.13;2.35;;;9.60;92.10;;;;;;5477025;26;19997;-71
2024/04/17 06:54:03;;;;;;;4.57;2.33;;;9.70;92.40;;;;;;5463338;26;20009;-72
2024/04/17 06:56:49;;;;;;;4.68;2.20;;;9.80;92.30;;;;;;5468694;26;20296;-72
2024/04/17 06:59:35;;;;;;;5.55;2.47;;;9.90;92.40;;;;;;5473464;26;19990;-72
2024/04/17 07:02:20;;;;;;;4.38;1.90;;;10.00;92.30;;;;;;5470830;26;19998;-71
2024/04/17 07:05:06;;;;;;;4.35;1.95;;;10.10;92.30;;;;;;5427511;26;20323;-72
2024/04/17 07:07:52;;;;;;;4.45;1.98;;;10.20;92.20;;;;;;5480636;26;19990;-67
2024/04/17 07:10:38;;;;;;;3.28;2.00;;;10.20;92.00;;;;;;5478268;26;20010;-69
2024/04/17 07:13:24;;;;;;;4.03;1.70;;;10.30;92.00;;;;;;5469508;26;20014;-69
2024/04/17 07:16:10;;;;;;;3.70;2.00;;;10.40;91.70;;;;;;5457590;26;19994;-69
2024/04/17 07:18:56;;;;;;;4.60;2.47;;;10.40;91.50;;;;;;5473145;26;19994;-70
2024/04/17 07:21:42;;;;;;;2.95;1.98;;;10.50;91.30;;;;;;5474882;26;20037;-69
2024/04/17 07:24:28;;;;;;;3.63;1.90;;;10.50;91.20;;;;;;5471717;26;21051;-66
2024/04/17 07:27:14;;;;;;;3.35;2.10;;;10.50;91.10;;;;;;5486965;25;20457;-68
2024/04/17 07:30:00;;;;;;;2.92;1.58;;;10.60;91.10;;;;;;5464986;25;20071;-66
2024/04/17 07:32:46;;;;;;;5.03;2.20;;;10.60;90.90;;;;;;5470094;26;20010;-68
2024/04/17 07:35:32;;;;;;;3.40;1.95;;;10.50;90.70;;;;;;5460670;26;19999;-68
2024/04/17 07:38:18;;;;;;;4.15;2.42;;;10.60;90.80;;;;;;5478801;26;20064;-67
2024/04/17 07:41:05;;;;;;;5.55;1.85;;;10.60;90.40;;;;;;5452495;26;20007;-67
2024/04/17 07:43:51;;;;;;;3.25;1.90;;;10.50;90.00;;;;;;5468365;26;20735;-68
2024/04/17 07:46:37;;;;;;;3.95;2.05;;;10.40;90.00;;;;;;5468933;26;20076;-68
2024/04/17 07:49:23;;;;;;;2.05;1.25;;;10.40;89.70;;;;;;5476681;26;20068;-68
2024/04/17 07:52:09;;;;;;;4.10;2.10;;;10.40;89.80;;;;;;5472934;26;20014;-69
2024/04/17 07:54:55;;;;;;;4.53;2.17;;;10.40;89.80;;;;;;5477469;26;20619;-69
2024/04/17 07:57:40;;;;;;;2.92;1.63;;;10.40;89.20;;;;;;5484478;26;20394;-69
2024/04/17 08:00:26;;;;;;;6.30;1.63;;;10.40;89.40;;;;;;5446529;26;20408;-69
2024/04/17 08:03:12;;;;;;;5.95;2.55;;;10.50;89.40;;;;;;5446304;26;20014;-69
2024/04/17 08:05:58;;;;;;;3.50;2.15;;;10.60;89.70;;;;;;5430222;26;20051;-69
2024/04/17 08:08:44;;;;;;;3.35;1.70;;;10.80;89.80;;;;;;5441402;26;21719;-69
2024/04/17 08:11:36;;;;;;;4.07;1.80;;;10.90;89.70;;;;;;5453982;26;20063;-69
2024/04/17 08:14:22;;;;;;;2.65;1.45;;;11.10;89.60;;;;;;5453855;26;20011;-69
2024/04/17 08:17:08;;;;;;;3.80;1.98;;;11.20;89.40;;;;;;5434502;26;19999;-70
2024/04/17 08:19:54;;;;;;;4.57;2.40;;;11.30;89.30;;;;;;5420456;26;19999;-69
2024/04/17 08:22:40;;;;;;;4.65;2.05;;;11.40;89.20;;;;;;5432413;26;20078;-69
2024/04/17 08:25:26;;;;;;;3.22;1.63;;;11.50;89.20;;;;;;5440111;26;20359;-69
2024/04/17 08:28:12;;;;;;;4.90;2.20;;;11.70;89.20;;;;;;5444106;26;20005;-69
2024/04/17 08:30:59;;;;;;;4.15;2.03;;;11.60;89.00;;;;;;5438438;26;20005;-70
2024/04/17 08:33:45;;;;;;;2.53;1.73;;;11.70;89.10;;;;;;5450198;26;19994;-69
2024/04/17 08:36:31;;;;;;;6.50;2.90;;;11.80;88.70;;;;;;5454764;26;20355;-69
2024/04/17 08:39:17;;;;;;;6.10;2.20;;;11.90;88.60;;;;;;5443219;26;20476;-69
2024/04/17 08:42:06;;;;;;;10.20;2.47;;;12.00;88.20;;;;;;5434117;26;20035;-70
2024/04/17 08:44:52;;;;;;;5.57;2.28;;;12.00;87.90;;;;;;5422178;26;19999;-70
2024/04/17 08:47:42;;;;;;;4.00;2.30;;;12.10;88.10;;;;;;5416460;26;19996;-69
2024/04/17 08:50:32;;;;;;;3.38;2.08;;;12.20;87.60;;;;;;5447664;26;20378;-69
2024/04/17 08:53:19;;;;;;;5.15;2.10;;;12.20;87.40;;;;;;5444106;26;19999;-69
2024/04/17 08:56:07;;;;;;;2.55;1.88;;;12.30;87.20;;;;;;5450367;26;20029;-69
2024/04/17 08:58:54;;;;;;;2.90;2.10;;;12.30;87.00;;;;;;5446169;26;20018;-68
2024/04/17 09:01:41;;;;;;;2.50;1.45;;;12.30;86.60;;;;;;5464360;26;19990;-68
2024/04/17 09:04:28;;;;;;;2.83;1.65;;;12.30;85.90;;;;;;5478886;26;19998;-68
2024/04/17 09:07:14;;;;;;;2.83;1.50;;;12.30;85.80;;;;;;5492404;26;19994;-68
2024/04/17 09:10:00;;;;;;;4.45;1.70;;;12.40;85.30;;;;;;5483269;26;20005;-69
2024/04/17 09:12:46;;;;;;;3.28;1.80;;;12.30;84.40;;;;;;5481219;26;20005;-69
2024/04/17 09:15:32;;;;;;;7.40;1.67;;;12.30;84.80;;;;;;5472181;26;20458;-69
2024/04/17 09:18:25;;;;;;;3.28;1.45;;;12.30;84.90;;;;;;5481208;26;20094;-69
2024/04/17 09:21:12;;;;;;;4.43;1.75;;;12.50;84.70;;;;;;5484923;26;19998;-69
2024/04/17 09:23:58;;;;;;;2.40;1.27;;;12.50;84.70;;;;;;5480215;26;20013;-69
2024/04/17 09:26:44;;;;;;;2.85;1.30;;;12.70;84.70;;;;;;5472160;26;20005;-69
2024/04/17 09:29:32;;;;;;;2.55;1.30;;;12.80;83.40;;;;;;5485293;26;20005;-69
2024/04/17 09:32:18;;;;;;;2.15;1.38;;;12.70;83.10;;;;;;5481184;26;20009;-70
2024/04/17 09:35:09;;;;;;;2.38;1.40;;;12.80;83.30;;;;;;5468953;26;20071;-70
2024/04/17 09:37:55;;;;;;;4.53;1.90;;;12.90;82.90;;;;;;5482763;26;20034;-70
2024/04/17 09:40:46;;;;;;;4.45;1.65;;;12.90;82.90;;;;;;5488167;26;20109;-70
2024/04/17 09:43:35;;;;;;;3.63;1.65;;;12.90;83.40;;;;;;5473699;26;20006;-69
2024/04/17 09:46:22;;;;;;;2.92;1.65;;;12.80;83.00;;;;;;5486457;26;20092;-70
2024/04/17 09:49:28;;;;;;;3.88;1.77;;;12.80;83.50;;;;;;5483526;26;20048;-70
2024/04/17 09:52:17;;;;;;;2.92;1.90;;;12.80;83.60;;;;;;5472119;26;20034;-69
2024/04/17 09:55:04;;;;;;;7.38;1.90;;;12.80;83.50;;;;;;5467537;26;20432;-69
2024/04/17 09:57:50;;;;;;;4.30;2.10;;;12.80;83.90;;;;;;5484452;26;19994;-69
2024/04/17 10:00:38;;;;;;;2.53;1.45;;;12.80;82.90;;;;;;5406163;26;20007;-69
2024/04/17 10:03:24;;;;;;;2.65;1.60;;;12.90;82.60;;;;;;5440418;26;19999;-69
2024/04/17 10:06:10;;;;;;;3.70;1.98;;;12.90;82.30;;;;;;5444757;26;20009;-69
2024/04/17 10:08:58;;;;;;;3.58;1.80;;;13.00;81.60;;;;;;5436490;26;19998;-69
2024/04/17 10:11:50;;;;;;;2.67;1.60;;;13.00;80.60;;;;;;5420763;26;20014;-69
2024/04/17 10:14:37;;;;;;;3.95;1.33;;;13.00;80.30;;;;;;5447267;26;20013;-69
2024/04/17 10:17:23;;;;;;;3.60;1.58;;;13.10;80.40;;;;;;5470348;26;20006;-69
2024/04/17 10:20:29;;;;;;;3.83;1.60;;;13.20;80.50;;;;;;5447086;26;20327;-69
2024/04/17 10:23:17;;;;;;;1.60;1.30;;;13.30;80.60;;;;;;5424378;26;20016;-70
2024/04/17 10:26:03;;;;;;;3.33;1.80;;;13.40;80.40;;;;;;5445565;26;20031;-69
2024/04/17 10:28:52;;;;;;;4.78;2.20;;;13.50;80.30;;;;;;5447696;26;19991;-69
2024/04/17 10:31:37;;;;;;;3.80;1.60;;;13.60;79.70;;;;;;5455673;26;20011;-69
2024/04/17 10:34:25;;;;;;;4.13;2.30;;;13.60;79.60;;;;;;5441808;26;20459;-69
2024/04/17 10:37:12;;;;;;;4.63;2.17;;;13.60;79.60;;;;;;5444054;26;20062;-69
2024/04/17 10:39:59;;;;;;;2.53;1.60;;;13.60;79.60;;;;;;5422592;26;20338;-69
2024/04/17 10:42:45;;;;;;;2.25;1.52;;;13.70;78.60;;;;;;5435830;26;20006;-70
2024/04/17 10:45:31;;;;;;;1.40;1.20;;;13.70;77.00;;;;;;5438712;26;20006;-70
2024/04/17 10:48:18;;;;;;;3.20;1.45;;;13.80;76.10;;;;;;5447509;26;20001;-69
2024/04/17 10:51:04;;;;;;;2.00;1.15;;;13.80;75.90;;;;;;5446206;26;20413;-69
2024/04/17 10:53:51;;;;;;;2.80;1.20;;;14.00;75.90;;;;;;5447959;26;20571;-69
2024/04/17 10:56:40;;;;;;;2.83;1.67;;;14.10;75.30;;;;;;5448480;26;20002;-69
2024/04/17 10:59:27;;;;;;;2.15;1.10;;;14.20;74.70;;;;;;5462919;26;20359;-69
2024/04/17 11:02:13;;;;;;;2.20;1.30;;;14.40;74.60;;;;;;5451882;26;19990;-69
2024/04/17 11:05:01;;;;;;;2.35;1.20;;;14.50;74.20;;;;;;5476557;26;20311;-71
2024/04/17 11:07:47;;;;;;;3.92;1.20;;;14.60;73.60;;;;;;5480652;26;19998;-73
2024/04/17 11:10:32;;;;;;;3.47;1.08;;;14.70;72.50;;;;;;5476551;26;20006;-73
2024/04/17 11:13:18;;;;;;;2.72;1.73;;;14.80;72.00;;;;;;5480901;26;20439;-72
2024/04/17 11:16:04;;;;;;;1.58;1.25;;;14.90;71.80;;;;;;5479282;26;20026;-71
2024/04/17 11:18:51;;;;;;;1.85;0.98;;;14.90;70.10;;;;;;5479236;26;20021;-71
2024/04/17 11:21:37;;;;;;;2.08;1.40;;;14.90;69.70;;;;;;5471980;26;20446;-70
2024/04/17 11:24:23;;;;;;;1.75;1.00;;;14.90;68.70;;;;;;5479960;26;20026;-72
2024/04/17 11:27:10;;;;;;;3.20;1.10;;;14.90;68.60;;;;;;5474584;26;19990;-72
2024/04/17 11:30:02;;;;;;;2.42;1.20;;;14.90;67.80;;;;;;5473462;26;19994;-72
2024/04/17 11:32:48;;;;;;;2.55;1.10;;;14.90;67.30;;;;;;5474662;26;19994;-71
2024/04/17 11:35:34;;;;;;;1.95;1.17;;;14.80;66.70;;;;;;5470917;26;19998;-70
2024/04/17 11:38:20;;;;;;;2.10;1.13;;;14.70;64.60;;;;;;5481384;26;20006;-71
2024/04/17 11:41:06;;;;;;;2.15;1.20;;;14.60;65.50;;;;;;5476269;26;20001;-72
2024/04/17 11:43:52;;;;;;;4.30;1.08;;;14.60;65.50;;;;;;5470043;26;19995;-71
2024/04/17 11:46:39;;;;;;;1.10;0.85;;;14.60;65.70;;;;;;5478179;26;20071;-71
2024/04/17 11:49:26;;;;;;;2.50;1.20;;;14.70;65.50;;;;;;5483694;26;20075;-71
2024/04/17 11:52:12;;;;;;;1.85;1.08;;;14.80;65.40;;;;;;5480786;26;19998;-71
2024/04/17 11:54:59;;;;;;;1.80;1.10;;;14.80;65.30;;;;;;5479011;26;20351;-70
2024/04/17 11:57:45;;;;;;;1.77;1.05;;;14.90;65.30;;;;;;5483673;26;20024;-72
2024/04/17 12:00:31;;;;;;;4.07;1.50;;;14.80;64.80;;;;;;5467864;26;20346;-71
2024/04/17 12:03:20;;;;;;;2.30;1.20;;;14.80;64.20;;;;;;5486084;26;19995;-72
2024/04/17 12:06:10;;;;;;;3.03;1.08;;;14.70;64.30;;;;;;5485551;26;20070;-73
2024/04/17 12:08:56;;;;;;;3.35;1.50;;;14.60;64.40;;;;;;5441969;26;20005;-71
2024/04/17 12:11:42;;;;;;;5.57;1.50;;;14.40;64.40;;;;;;5476957;26;20005;-71
2024/04/17 12:14:28;;;;;;;1.23;1.02;;;14.20;63.50;;;;;;5481247;26;20009;-71
2024/04/17 12:17:14;;;;;;;1.60;1.10;;;14.00;61.90;;;;;;5488731;26;20419;-71
2024/04/17 12:20:01;;;;;;;2.25;0.88;;;14.00;62.60;;;;;;5469106;26;20006;-72
2024/04/17 12:22:47;;;;;;;1.20;0.90;;;14.00;62.10;;;;;;5488768;26;20049;-71
2024/04/17 12:28:37;;;;;;;1.92;1.17;;;14.10;62.50;;;;;;5454066;26;20067;-71
2024/04/17 12:31:24;;;;;;;2.10;1.27;;;14.00;61.70;;;;;;5461663;26;20336;-71
2024/04/17 12:34:10;;;;;;;1.52;1.10;;;13.90;62.20;;;;;;5479867;26;20002;-70
2024/04/17 12:36:56;;;;;;;1.60;1.05;;;13.70;62.40;;;;;;5442951;26;20073;-71
2024/04/17 12:39:42;;;;;;;2.85;1.27;;;13.60;62.40;;;;;;5452482;26;19995;-72
2024/04/17 12:42:28;;;;;;;2.25;1.10;;;13.40;62.40;;;;;;5465182;26;20094;-71
2024/04/17 12:45:14;;;;;;;2.25;1.20;;;13.30;62.60;;;;;;5478770;26;21386;-71
2024/04/17 12:47:59;;;;;;;3.75;1.20;;;13.20;62.70;;;;;;5481972;26;19998;-71
2024/04/17 12:50:50;;;;;;;2.95;1.13;;;13.20;62.60;;;;;;5460076;26;20010;-71
2024/04/17 12:53:36;;;;;;;1.45;1.20;;;13.20;62.90;;;;;;5482822;26;20001;-71
2024/04/17 12:56:22;;;;;;;2.10;1.30;;;13.20;63.00;;;;;;5474325;26;19994;-72
2024/04/17 12:59:09;;;;;;;3.10;1.23;;;13.30;62.90;;;;;;5451604;26;20078;-72
2024/04/17 13:01:55;;;;;;;1.75;1.13;;;13.40;62.70;;;;;;5467327;26;20006;-71
2024/04/17 13:04:45;;;;;;;2.90;0.88;;;13.60;62.60;;;;;;5484367;26;20426;-71
2024/04/17 13:07:30;;;;;;;2.33;1.02;;;13.80;61.90;;;;;;5466618;26;20321;-71
2024/04/17 13:10:16;;;;;;;2.00;0.93;;;13.90;61.90;;;;;;5475217;26;20363;-72
2024/04/17 13:13:02;;;;;;;2.20;1.27;;;14.00;61.70;;;;;;5467869;26;19998;-72
2024/04/17 13:15:59;;;;;;;1.27;1.00;;;14.10;60.80;;;;;;5477718;26;20787;-72
2024/04/17 13:18:45;;;;;;;2.22;1.20;;;14.10;60.30;;;;;;5472426;26;20010;-72
2024/04/17 13:21:31;;;;;;;1.75;1.00;;;14.10;60.70;;;;;;5478952;26;20532;-70
2024/04/17 13:24:17;;;;;;;1.67;1.20;;;14.20;61.10;;;;;;5487636;26;20315;-71
2024/04/17 13:27:03;;;;;;;2.15;1.27;;;14.20;61.10;;;;;;5468058;26;20963;-71
2024/04/17 13:29:49;;;;;;;2.17;1.55;;;14.10;61.30;;;;;;5465445;26;20010;-71
2024/04/17 13:32:35;;;;;;;2.40;1.48;;;14.10;61.70;;;;;;5444978;26;19995;-70
2024/04/17 13:35:21;;;;;;;2.78;1.30;;;14.20;61.90;;;;;;5476247;26;20013;-71
2024/04/17 13:38:07;;;;;;;2.05;1.20;;;14.20;62.90;;;;;;5482490;26;20002;-69
2024/04/17 13:40:56;;;;;;;1.35;1.20;;;14.00;63.30;;;;;;5484083;26;20323;-71
2024/04/17 13:43:42;;;;;;;1.98;1.40;;;14.00;63.90;;;;;;5478679;26;20009;-71
2024/04/17 13:46:28;;;;;;;4.28;1.50;;;14.00;64.30;;;;;;5480176;26;20074;-71
2024/04/17 13:49:14;;;;;;;1.92;1.20;;;13.90;64.10;;;;;;5458572;26;20003;-72
2024/04/17 13:52:00;;;;;;;2.60;1.50;;;13.90;64.50;;;;;;5443337;26;20005;-72
2024/04/17 13:54:46;;;;;;;2.10;1.50;;;13.90;64.50;;;;;;5485705;26;20432;-72
2024/04/17 13:57:32;;;;;;;4.05;1.90;;;13.90;64.60;;;;;;5466859;26;19998;-70
2024/04/17 14:00:18;;;;;;;2.55;1.23;;;13.80;64.60;;;;;;5472363;26;20038;-72
2024/04/17 14:03:04;;;;;;;1.67;1.33;;;13.70;64.90;;;;;;5483189;26;20338;-72
2024/04/17 14:05:50;;;;;;;1.83;1.23;;;13.80;65.10;;;;;;5475196;26;20012;-71
2024/04/17 14:08:36;;;;;;;2.65;1.42;;;13.80;64.40;;;;;;5465883;26;20067;-73
2024/04/17 14:11:22;;;;;;;1.77;1.25;;;13.70;64.00;;;;;;5475193;26;20442;-72
2024/04/17 14:14:08;;;;;;;1.95;1.40;;;13.70;64.00;;;;;;5482924;26;20002;-73
2024/04/17 14:16:56;;;;;;;1.52;1.13;;;13.80;64.20;;;;;;5481697;26;20346;-72
2024/04/17 14:19:42;;;;;;;2.65;1.60;;;13.80;64.30;;;;;;5487704;26;20438;-72
2024/04/17 14:22:28;;;;;;;2.17;1.30;;;13.80;64.00;;;;;;5475652;26;20003;-73
2024/04/17 14:25:14;;;;;;;1.95;1.13;;;13.60;63.30;;;;;;5477780;26;19994;-73
2024/04/17 14:28:00;;;;;;;1.10;1.00;;;13.40;63.40;;;;;;5457437;26;20003;-74
2024/04/17 14:30:54;;;;;;;2.03;1.10;;;13.40;63.60;;;;;;5483544;25;20068;-74
2024/04/17 14:33:40;;;;;;;1.80;1.02;;;13.30;63.80;;;;;;5472437;26;19999;-73
2024/04/17 14:36:27;;;;;;;4.47;1.60;;;13.30;64.10;;;;;;5471958;26;20652;-73